Time;durP1;ratioP1;P1;durP2;ratioP2;P2;SDS_P1;SDS_P2;PMS_P1;PMS_P2;Temp;Humidity;BMP_temperature;BMP_pressure;BME280_temperature;BME280_humidity;BME280_pressure;Samples;Min_cycle;Max_cycle;Signal;HPM_P1;HPM_P2
2021/07/30 00:00:17;;;;;;;7.32;4.37;;;;;;;22.06;48.48;99767.59;4395758;32;20129;-69
2021/07/30 00:02:43;;;;;;;11.32;3.97;;;;;;;22.19;48.18;99768.44;4397932;32;20038;-69
2021/07/30 00:05:10;;;;;;;9.20;3.92;;;;;;;22.08;48.43;99762.06;4397067;32;20119;-69
2021/07/30 00:07:35;;;;;;;6.35;3.42;;;;;;;21.95;48.70;99756.25;4396707;32;20034;-69
2021/07/30 00:10:04;;;;;;;8.00;3.35;;;;;;;22.06;48.50;99753.25;4383764;32;20410;-69
2021/07/30 00:12:29;;;;;;;8.27;3.78;;;;;;;22.36;47.95;99756.75;4396674;32;20532;-69
2021/07/30 00:14:55;;;;;;;9.90;3.50;;;;;;;22.17;48.15;99745.28;4395944;32;20114;-69
2021/07/30 00:17:20;;;;;;;7.37;3.85;;;;;;;22.17;48.04;99733.81;4394872;32;20464;-69
2021/07/30 00:19:46;;;;;;;12.60;3.90;;;;;;;22.21;47.97;99745.72;4398551;32;20080;-69
2021/07/30 00:22:12;;;;;;;9.20;4.30;;;;;;;22.25;47.91;99743.34;4395301;32;20104;-69
2021/07/30 00:24:37;;;;;;;10.40;3.45;;;;;;;22.20;47.84;99731.94;4395754;32;20140;-69
2021/07/30 00:27:03;;;;;;;7.95;3.53;;;;;;;22.28;47.83;99733.66;4397584;32;20411;-69
2021/07/30 00:29:29;;;;;;;9.32;3.72;;;;;;;22.31;47.60;99726.84;4395747;32;20093;-69
2021/07/30 00:31:55;;;;;;;11.77;3.20;;;;;;;22.27;47.94;99720.63;4396688;32;20469;-69
2021/07/30 00:34:20;;;;;;;13.50;3.90;;;;;;;22.21;47.87;99731.41;4399081;32;20409;-68
2021/07/30 00:36:46;;;;;;;5.50;3.20;;;;;;;22.31;47.58;99729.72;4396525;32;20127;-68
2021/07/30 00:39:12;;;;;;;7.35;3.50;;;;;;;22.27;47.87;99725.63;4382860;32;20375;-69
2021/07/30 00:41:39;;;;;;;9.07;3.92;;;;;;;22.24;48.07;99729.56;4394713;32;20100;-70
2021/07/30 00:44:06;;;;;;;8.48;3.97;;;;;;;22.23;48.33;99733.72;4396847;32;20042;-69
2021/07/30 00:46:32;;;;;;;7.87;3.87;;;;;;;22.19;48.32;99731.19;4398482;32;20135;-69
2021/07/30 00:48:58;;;;;;;11.52;4.45;;;;;;;22.43;48.06;99722.47;4396197;32;20042;-69
2021/07/30 00:51:24;;;;;;;14.93;5.12;;;;;;;22.35;48.27;99721.56;4397937;32;20065;-69
2021/07/30 00:53:50;;;;;;;9.77;4.45;;;;;;;22.23;48.81;99714.44;4399279;32;20089;-69
2021/07/30 00:56:16;;;;;;;14.45;4.65;;;;;;;22.37;48.51;99707.44;4384950;32;20143;-69
2021/07/30 00:58:43;;;;;;;6.37;3.40;;;;;;;22.37;48.64;99706.69;4395834;32;20619;-69
2021/07/30 01:01:08;;;;;;;7.30;3.37;;;;;;;22.48;48.58;99703.63;4395447;32;20390;-69
2021/07/30 01:03:34;;;;;;;10.35;3.78;;;;;;;22.34;48.35;99713.50;4394911;32;20075;-69
2021/07/30 01:06:00;;;;;;;11.27;3.60;;;;;;;22.41;48.15;99707.12;4397741;32;20057;-69
2021/07/30 01:08:26;;;;;;;11.45;3.78;;;;;;;22.51;47.89;99706.22;4397018;32;20792;-69
2021/07/30 01:10:52;;;;;;;10.20;3.53;;;;;;;22.58;47.66;99699.09;4396955;32;20170;-69
2021/07/30 01:13:18;;;;;;;13.62;4.03;;;;;;;;;;4395353;32;20018;-69
2021/07/30 01:15:45;;;;;;;5.55;3.37;;;;;;;22.52;47.99;99695.53;4398317;32;20336;-69
2021/07/30 01:18:10;;;;;;;8.88;3.78;;;;;;;22.39;48.03;99695.44;4395033;32;20073;-69
2021/07/30 01:20:41;;;;;;;6.47;3.45;;;;;;;22.38;48.17;99702.50;4394552;32;20046;-69
2021/07/30 01:23:09;;;;;;;6.93;3.70;;;;;;;22.65;47.66;99693.50;4397410;32;20101;-69
2021/07/30 01:25:36;;;;;;;7.40;3.28;;;;;;;22.53;48.27;99694.22;4395065;32;20105;-69
2021/07/30 01:28:02;;;;;;;8.65;3.78;;;;;;;22.34;48.59;99699.19;4394570;32;20125;-69
2021/07/30 01:30:28;;;;;;;12.13;4.62;;;;;;;22.30;48.22;99690.88;4394047;32;20092;-69
2021/07/30 01:32:54;;;;;;;12.40;4.10;;;;;;;22.32;48.58;99688.25;4395911;32;20413;-69
2021/07/30 01:35:20;;;;;;;9.18;3.20;;;;;;;22.32;48.80;99685.38;4395978;32;20419;-69
2021/07/30 01:37:46;;;;;;;9.57;3.97;;;;;;;22.45;48.56;99684.66;4395450;32;20134;-69
2021/07/30 01:40:12;;;;;;;9.00;4.18;;;;;;;22.30;48.96;99684.41;4395440;32;20099;-69
2021/07/30 01:42:38;;;;;;;7.03;3.42;;;;;;;22.30;49.19;99684.41;4396417;32;20100;-69
2021/07/30 01:45:06;;;;;;;8.57;3.67;;;;;;;22.30;49.37;99684.41;4394795;32;20143;-69
2021/07/30 01:47:32;;;;;;;7.45;3.90;;;;;;;22.31;49.32;99678.12;4398897;32;20057;-69
2021/07/30 01:49:57;;;;;;;10.18;3.55;;;;;;;22.18;49.51;99674.41;4397565;32;20034;-69
2021/07/30 01:52:23;;;;;;;6.43;3.30;;;;;;;22.12;49.57;99674.47;4395568;32;20030;-69
2021/07/30 01:54:49;;;;;;;11.82;4.00;;;;;;;22.26;49.36;99664.63;4396059;32;20152;-69
2021/07/30 01:57:16;;;;;;;8.18;4.32;;;;;;;22.23;49.76;99665.72;4383678;32;20097;-69
2021/07/30 01:59:42;;;;;;;13.73;4.75;;;;;;;22.20;49.90;99666.81;4394859;32;20066;-69
2021/07/30 02:02:08;;;;;;;10.20;4.10;;;;;;;22.22;49.69;99674.88;4400171;32;20098;-69
2021/07/30 02:04:34;;;;;;;8.98;4.32;;;;;;;22.21;49.84;99676.19;4397634;32;20360;-69
2021/07/30 02:07:00;;;;;;;6.03;3.53;;;;;;;22.18;49.74;99660.09;4394663;32;20047;-69
2021/07/30 02:09:29;;;;;;;8.43;4.10;;;;;;;22.42;49.20;99659.94;4395051;32;20068;-69
2021/07/30 02:11:56;;;;;;;7.00;4.18;;;;;;;22.53;49.01;99651.19;4393212;32;20061;-69
2021/07/30 02:14:29;;;;;;;6.50;3.58;;;;;;;22.27;49.70;99648.22;4393971;32;20038;-69
2021/07/30 02:16:58;;;;;;;15.82;4.07;;;;;;;22.41;49.47;99644.06;4395673;32;20528;-69
2021/07/30 02:19:24;;;;;;;9.85;3.95;;;;;;;22.58;49.37;99647.47;4392349;32;20053;-69
2021/07/30 02:21:52;;;;;;;7.28;3.83;;;;;;;22.51;49.37;99633.75;4395172;32;20037;-69
2021/07/30 02:24:19;;;;;;;6.82;3.92;;;;;;;22.58;49.17;99633.13;4394082;32;20518;-69
2021/07/30 02:26:45;;;;;;;9.00;3.95;;;;;;;22.48;49.31;99637.69;4398052;32;20149;-69
2021/07/30 02:29:12;;;;;;;9.95;3.67;;;;;;;22.46;49.67;99641.09;4393593;32;20018;-69
2021/07/30 02:31:38;;;;;;;9.25;3.35;;;;;;;22.47;49.27;99639.03;4395775;32;20085;-69
2021/07/30 02:34:04;;;;;;;9.18;3.40;;;;;;;22.38;49.00;99633.69;4392613;32;20121;-69
2021/07/30 02:36:29;;;;;;;7.18;4.20;;;;;;;22.36;49.15;99636.34;4395324;32;20042;-69
2021/07/30 02:38:55;;;;;;;10.23;3.47;;;;;;;22.40;49.08;99626.09;4395887;32;20100;-69
2021/07/30 02:41:21;;;;;;;7.72;3.78;;;;;;;22.47;49.00;99622.59;4392598;32;20058;-69
2021/07/30 02:43:47;;;;;;;11.98;3.40;;;;;;;22.51;48.79;99620.22;4394516;32;20074;-69
2021/07/30 02:46:16;;;;;;;7.43;3.80;;;;;;;22.46;48.84;99621.03;4395552;32;20034;-69
2021/07/30 02:48:43;;;;;;;9.60;3.12;;;;;;;22.46;49.01;99618.16;4396544;32;20067;-69
2021/07/30 02:51:09;;;;;;;10.30;3.92;;;;;;;22.47;48.73;99616.09;4396012;32;20038;-69
2021/07/30 02:53:34;;;;;;;11.82;3.67;;;;;;;22.44;49.01;99611.44;4392297;32;20088;-69
2021/07/30 02:56:01;;;;;;;7.47;3.40;;;;;;;22.42;48.81;99606.25;4393846;32;20060;-69
2021/07/30 02:58:26;;;;;;;8.98;3.80;;;;;;;22.50;48.97;99597.81;4393278;32;20426;-69
2021/07/30 03:00:52;;;;;;;7.15;3.60;;;;;;;22.61;48.44;99604.13;4393796;32;20119;-69
2021/07/30 03:03:17;;;;;;;9.65;3.45;;;;;;;22.52;48.88;99595.94;4395778;32;20101;-69
2021/07/30 03:05:46;;;;;;;12.13;3.67;;;;;;;22.51;49.88;99591.53;4392947;32;20065;-69
2021/07/30 03:08:11;;;;;;;8.48;3.80;;;;;;;22.67;49.51;99578.97;4391834;32;20053;-69
2021/07/30 03:10:37;;;;;;;5.82;3.62;;;;;;;22.47;49.91;99578.81;4393182;32;20046;-69
2021/07/30 03:13:03;;;;;;;13.68;4.55;;;;;;;22.57;49.57;99577.88;4392972;32;21460;-69
2021/07/30 03:15:28;;;;;;;9.00;4.15;;;;;;;22.51;49.44;99565.72;4395562;32;20504;-68
2021/07/30 03:17:54;;;;;;;10.00;4.55;;;;;;;22.43;50.38;99575.50;4393927;32;20050;-69
2021/07/30 03:20:20;;;;;;;13.48;4.57;;;;;;;22.50;50.44;99578.53;4393462;32;20045;-69
2021/07/30 03:22:46;;;;;;;10.38;4.28;;;;;;;22.52;50.50;99580.84;4392824;32;20031;-69
2021/07/30 03:25:12;;;;;;;13.15;4.40;;;;;;;22.42;50.64;99573.94;4392225;32;20112;-69
2021/07/30 03:27:37;;;;;;;10.90;4.55;;;;;;;22.40;50.94;99565.87;4393192;32;20084;-69
2021/07/30 03:30:04;;;;;;;10.13;4.65;;;;;;;22.37;51.33;99569.84;4393918;32;20069;-69
2021/07/30 03:32:30;;;;;;;9.88;4.68;;;;;;;22.41;51.53;99569.53;4394934;32;20063;-69
2021/07/30 03:34:56;;;;;;;10.70;4.95;;;;;;;22.43;51.57;99558.31;4393690;32;20026;-68
2021/07/30 03:37:22;;;;;;;8.63;4.72;;;;;;;22.37;51.97;99554.75;4391564;32;20435;-68
2021/07/30 03:39:48;;;;;;;5.87;4.12;;;;;;;22.47;51.86;99555.88;4393291;32;20061;-68
2021/07/30 03:42:13;;;;;;;8.90;5.07;;;;;;;22.43;51.92;99558.31;4393167;32;20649;-68
2021/07/30 03:44:39;;;;;;;9.65;5.00;;;;;;;22.38;52.07;99550.56;4393878;32;20050;-68
2021/07/30 03:47:05;;;;;;;12.63;5.20;;;;;;;22.47;51.89;99548.06;4394646;32;20094;-68
2021/07/30 03:49:30;;;;;;;14.50;5.35;;;;;;;22.51;51.66;99537.06;4396101;32;20141;-68
2021/07/30 03:51:56;;;;;;;14.30;6.45;;;;;;;22.52;51.46;99530.00;4392386;32;20039;-67
2021/07/30 03:54:21;;;;;;;10.98;5.40;;;;;;;22.44;51.91;99522.56;4394565;32;20380;-68
2021/07/30 03:56:48;;;;;;;11.73;5.62;;;;;;;22.45;52.30;99513.44;4392269;32;20450;-68
2021/07/30 03:59:14;;;;;;;12.80;5.50;;;;;;;22.39;52.41;99504.16;4392085;32;20046;-68
2021/07/30 04:01:48;;;;;;;10.30;5.53;;;;;;;22.40;52.24;99510.66;4392970;32;20082;-67
2021/07/30 04:04:15;;;;;;;15.27;5.68;;;;;;;22.50;52.59;99506.06;4393216;32;20085;-68
2021/07/30 04:06:43;;;;;;;11.32;6.00;;;;;;;22.43;52.85;99507.47;4393746;32;20070;-68
2021/07/30 04:09:11;;;;;;;17.95;7.12;;;;;;;22.41;52.76;99507.25;4393591;32;20173;-68
2021/07/30 04:11:37;;;;;;;17.23;7.87;;;;;;;22.51;52.62;99505.53;4395525;32;20431;-68
2021/07/30 04:14:05;;;;;;;13.27;7.25;;;;;;;22.37;52.97;99503.16;4394854;32;20083;-68
2021/07/30 04:16:32;;;;;;;15.93;7.60;;;;;;;22.27;52.99;99491.34;4393619;32;20054;-69
2021/07/30 04:18:58;;;;;;;14.98;7.47;;;;;;;22.12;52.67;99491.09;4392091;32;20449;-67
2021/07/30 04:21:23;;;;;;;17.50;8.55;;;;;;;22.25;53.04;99494.00;4394380;32;20094;-68
2021/07/30 04:23:49;;;;;;;16.75;8.18;;;;;;;22.29;52.97;99490.81;4391825;32;20427;-68
2021/07/30 04:26:14;;;;;;;17.48;8.30;;;;;;;22.28;52.90;99497.87;4395028;32;20132;-67
2021/07/30 04:28:40;;;;;;;16.70;9.38;;;;;;;22.36;52.49;99488.06;4393755;32;20027;-67
2021/07/30 04:31:06;;;;;;;18.30;8.55;;;;;;;22.28;52.41;99492.13;4393427;32;20046;-67
2021/07/30 04:33:33;;;;;;;14.00;7.80;;;;;;;22.40;52.84;99491.34;4394470;32;20035;-68
2021/07/30 04:35:59;;;;;;;15.98;8.70;;;;;;;22.54;52.42;99481.47;4394143;32;20060;-68
2021/07/30 04:38:25;;;;;;;17.35;8.68;;;;;;;22.33;52.85;99476.94;4393516;32;20101;-68
2021/07/30 04:40:51;;;;;;;15.40;8.40;;;;;;;22.32;52.69;99481.09;4396344;32;20038;-68
2021/07/30 04:43:16;;;;;;;21.75;9.73;;;;;;;22.35;53.03;99472.19;4383269;32;20093;-68
2021/07/30 04:45:42;;;;;;;14.15;7.47;;;;;;;22.47;52.97;99475.59;4397600;32;20147;-68
2021/07/30 04:48:08;;;;;;;15.10;7.72;;;;;;;22.47;52.36;99484.19;4397738;32;20159;-68
2021/07/30 04:50:34;;;;;;;15.30;7.85;;;;;;;22.55;52.81;99470.78;4394784;32;20863;-68
2021/07/30 04:53:00;;;;;;;15.38;7.47;;;;;;;22.64;52.25;99467.47;4397450;32;20035;-67
2021/07/30 04:55:26;;;;;;;20.08;7.80;;;;;;;22.71;51.61;99470.47;4393925;32;20141;-67
2021/07/30 04:57:53;;;;;;;14.60;7.53;;;;;;;22.48;52.13;99459.94;4394236;32;20074;-67
2021/07/30 05:00:21;;;;;;;13.30;7.50;;;;;;;22.42;52.33;99470.75;4395550;32;20130;-67
2021/07/30 05:02:47;;;;;;;17.98;8.02;;;;;;;22.58;52.30;99463.97;4395973;32;20057;-67
2021/07/30 05:05:13;;;;;;;17.12;7.57;;;;;;;22.54;52.54;99458.53;4396815;32;20070;-68
2021/07/30 05:07:39;;;;;;;13.05;8.40;;;;;;;22.48;52.56;99457.06;4395410;32;20088;-68
2021/07/30 05:10:05;;;;;;;13.80;7.90;;;;;;;22.50;53.20;99452.37;4395940;32;20046;-68
2021/07/30 05:12:31;;;;;;;17.70;8.95;;;;;;;22.55;52.49;99447.84;4396710;32;20107;-68
2021/07/30 05:14:57;;;;;;;16.55;8.52;;;;;;;22.34;52.68;99446.94;4381433;32;20038;-68
2021/07/30 05:17:22;;;;;;;14.35;7.70;;;;;;;22.50;52.63;99440.91;4397239;32;20380;-68
2021/07/30 05:19:48;;;;;;;14.57;8.40;;;;;;;22.53;52.33;99445.53;4396750;32;20419;-69
2021/07/30 05:22:13;;;;;;;15.02;8.18;;;;;;;;;;4398229;32;20409;-69
2021/07/30 05:24:39;;;;;;;15.73;7.60;;;;;;;22.46;52.62;99434.69;4395586;32;20034;-69
2021/07/30 05:27:06;;;;;;;16.42;8.95;;;;;;;22.40;52.42;99428.28;4394340;32;20051;-69
2021/07/30 05:29:33;;;;;;;15.15;7.85;;;;;;;22.64;52.31;99421.59;4391871;32;20122;-69
2021/07/30 05:32:00;;;;;;;18.87;7.37;;;;;;;22.62;52.21;99422.16;4396707;32;20565;-68
2021/07/30 05:34:26;;;;;;;14.75;7.75;;;;;;;22.60;52.50;99426.88;4395994;32;20074;-68
2021/07/30 05:36:51;;;;;;;17.17;7.68;;;;;;;22.58;52.57;99424.56;4395187;32;20027;-68
2021/07/30 05:39:17;;;;;;;19.35;8.98;;;;;;;22.53;52.56;99416.88;4395769;32;20069;-68
2021/07/30 05:41:42;;;;;;;17.08;7.70;;;;;;;22.42;52.91;99422.00;4395054;32;20077;-68
2021/07/30 05:44:08;;;;;;;17.75;7.93;;;;;;;22.53;52.41;99425.47;4396491;32;20640;-68
2021/07/30 05:46:37;;;;;;;17.55;8.25;;;;;;;22.51;52.57;99422.37;4393401;32;20086;-68
2021/07/30 05:49:03;;;;;;;14.68;7.68;;;;;;;22.78;52.29;99414.50;4396060;32;20073;-67
2021/07/30 05:51:29;;;;;;;16.42;8.18;;;;;;;22.57;52.29;99420.16;4396209;32;20166;-68
2021/07/30 05:53:54;;;;;;;13.07;7.78;;;;;;;22.58;52.71;99420.94;4397521;32;20065;-67
2021/07/30 05:56:20;;;;;;;18.67;8.60;;;;;;;22.56;52.69;99406.37;4396230;32;20031;-68
2021/07/30 05:58:46;;;;;;;15.07;7.65;;;;;;;22.57;52.73;99411.56;4395853;32;20093;-67
2021/07/30 06:01:13;;;;;;;12.32;6.37;;;;;;;22.64;52.66;99401.53;4395334;32;20156;-68
2021/07/30 06:03:40;;;;;;;9.45;6.03;;;;;;;22.78;51.96;99400.16;4395212;32;21133;-68
2021/07/30 06:06:06;;;;;;;10.35;6.20;;;;;;;22.57;51.54;99397.22;4396476;32;20043;-68
2021/07/30 06:08:32;;;;;;;10.55;6.00;;;;;;;22.45;52.28;99386.50;4394948;32;20418;-68
2021/07/30 06:10:58;;;;;;;13.80;6.80;;;;;;;22.52;52.54;99400.22;4395280;32;20031;-68
2021/07/30 06:13:23;;;;;;;9.70;6.05;;;;;;;22.48;53.11;99385.41;4394678;32;20103;-69
2021/07/30 06:15:49;;;;;;;11.38;6.15;;;;;;;22.51;52.55;99393.72;4396104;32;20069;-67
2021/07/30 06:18:15;;;;;;;8.50;4.35;;;;;;;22.47;52.92;99384.66;4394189;32;20136;-67
2021/07/30 06:20:41;;;;;;;11.02;5.75;;;;;;;22.36;52.12;99389.84;4380988;32;20030;-68
2021/07/30 06:23:07;;;;;;;6.85;4.72;;;;;;;22.45;52.32;99380.78;4396502;32;20046;-67
2021/07/30 06:25:33;;;;;;;9.65;4.82;;;;;;;22.43;52.38;99386.31;4393588;32;20131;-69
2021/07/30 06:28:00;;;;;;;9.57;3.87;;;;;;;22.33;52.97;99385.22;4392985;32;20038;-67
2021/07/30 06:30:26;;;;;;;8.30;4.55;;;;;;;22.39;52.70;99375.16;4395151;32;20399;-68
2021/07/30 06:32:52;;;;;;;10.13;4.80;;;;;;;22.40;52.80;99365.22;4394687;32;20406;-68
2021/07/30 06:35:20;;;;;;;6.95;4.55;;;;;;;22.34;53.22;99369.56;4397176;32;20083;-68
2021/07/30 06:37:46;;;;;;;12.15;4.50;;;;;;;22.46;52.62;99363.03;4396777;32;20564;-69
2021/07/30 06:40:12;;;;;;;8.88;4.45;;;;;;;22.29;52.50;99367.56;4380867;32;20034;-69
2021/07/30 06:42:38;;;;;;;9.75;4.22;;;;;;;22.07;52.80;99356.56;4394529;32;20462;-70
2021/07/30 06:45:05;;;;;;;7.87;4.55;;;;;;;22.31;52.93;99356.31;4391248;32;20070;-68
2021/07/30 06:47:33;;;;;;;10.88;5.12;;;;;;;22.39;53.17;99354.31;4393617;32;20375;-70
2021/07/30 06:49:59;;;;;;;10.40;4.03;;;;;;;22.64;52.68;99361.37;4394184;32;20107;-68
2021/07/30 06:52:24;;;;;;;8.68;4.80;;;;;;;22.41;52.77;99360.28;4394604;32;20050;-68
2021/07/30 06:54:54;;;;;;;7.50;4.28;;;;;;;22.51;53.24;99349.91;4393408;32;20065;-68
2021/07/30 06:57:20;;;;;;;5.55;3.67;;;;;;;22.63;52.44;99360.59;4393906;32;20066;-70
2021/07/30 06:59:47;;;;;;;7.60;3.80;;;;;;;22.41;52.78;99354.53;4392436;32;20155;-68
2021/07/30 07:02:13;;;;;;;6.07;3.97;;;;;;;22.49;52.98;99347.56;4392732;32;21447;-68
2021/07/30 07:04:38;;;;;;;6.40;4.15;;;;;;;22.40;53.11;99342.28;4380601;32;20119;-68
2021/07/30 07:07:05;;;;;;;8.93;3.75;;;;;;;22.53;53.10;99344.41;4393566;32;20034;-68
2021/07/30 07:09:31;;;;;;;10.20;4.10;;;;;;;22.49;53.03;99338.22;4391315;32;20064;-70
2021/07/30 07:11:56;;;;;;;14.32;5.12;;;;;;;22.51;53.22;99342.09;4393931;32;21173;-68
2021/07/30 07:14:22;;;;;;;8.38;3.95;;;;;;;22.61;53.08;99337.44;4395647;32;20146;-68
2021/07/30 07:16:48;;;;;;;6.50;4.05;;;;;;;22.65;52.69;99343.63;4395576;32;20034;-68
2021/07/30 07:19:13;;;;;;;6.90;4.97;;;;;;;22.75;52.71;99329.56;4393682;32;20034;-69
2021/07/30 07:21:40;;;;;;;12.98;5.30;;;;;;;22.67;52.97;99323.00;4392896;32;20144;-68
2021/07/30 07:24:07;;;;;;;14.63;4.90;;;;;;;22.87;52.60;99314.44;4394573;32;20062;-68
2021/07/30 07:26:36;;;;;;;8.68;5.07;;;;;;;22.95;52.46;99321.00;4392883;32;20143;-68
2021/07/30 07:29:03;;;;;;;12.35;4.95;;;;;;;23.09;52.18;99330.31;4393094;32;20094;-68
2021/07/30 07:31:28;;;;;;;10.27;5.15;;;;;;;22.91;52.28;99319.81;4393886;32;20116;-69
2021/07/30 07:33:54;;;;;;;13.60;4.87;;;;;;;22.93;52.13;99326.53;4393721;32;20086;-69
2021/07/30 07:36:20;;;;;;;16.58;5.20;;;;;;;22.64;52.50;99324.84;4393045;32;20030;-69
2021/07/30 07:38:46;;;;;;;12.48;5.45;;;;;;;22.58;52.25;99321.34;4392700;32;20066;-68
2021/07/30 07:41:13;;;;;;;8.52;5.10;;;;;;;22.54;52.54;99317.28;4392697;32;20135;-69
2021/07/30 07:43:38;;;;;;;12.18;5.93;;;;;;;22.59;52.43;99314.31;4393268;32;20438;-69
2021/07/30 07:46:05;;;;;;;14.48;5.50;;;;;;;22.68;52.60;99313.06;4392234;32;20084;-70
2021/07/30 07:48:30;;;;;;;15.70;6.82;;;;;;;22.51;53.38;99307.69;4391563;32;20420;-69
2021/07/30 07:50:56;;;;;;;13.85;6.03;;;;;;;22.68;52.77;99305.22;4393319;32;20157;-69
2021/07/30 07:53:22;;;;;;;12.30;6.18;;;;;;;22.82;52.68;99300.97;4379657;32;20091;-69
2021/07/30 07:55:49;;;;;;;11.40;6.45;;;;;;;22.75;52.37;99295.16;4391563;32;20152;-69
2021/07/30 07:58:15;;;;;;;11.27;6.40;;;;;;;22.69;53.28;99301.03;4391344;32;20070;-69
2021/07/30 08:00:42;;;;;;;16.33;7.22;;;;;;;22.76;52.53;99296.69;4391055;32;20043;-69
2021/07/30 08:03:08;;;;;;;11.27;6.25;;;;;;;22.77;52.79;99295.38;4392561;32;20142;-69
2021/07/30 08:08:55;;;;;;;11.07;6.50;;;;;;;23.15;51.92;99299.37;4390867;32;20548;-69
2021/07/30 08:11:20;;;;;;;14.23;6.47;;;;;;;22.98;52.23;99294.06;4391879;32;20086;-69
2021/07/30 08:13:46;;;;;;;12.93;6.28;;;;;;;22.83;52.52;99290.28;4397209;32;20109;-69
2021/07/30 08:16:11;;;;;;;9.32;6.18;;;;;;;23.01;52.19;99290.06;4382606;32;20438;-69
2021/07/30 08:18:37;;;;;;;13.43;6.78;;;;;;;22.96;52.55;99282.41;4397070;32;20062;-69
2021/07/30 08:21:03;;;;;;;12.05;6.15;;;;;;;22.92;52.11;99278.31;4395532;32;20482;-69
2021/07/30 08:23:30;;;;;;;16.02;6.32;;;;;;;23.05;51.91;99279.03;4395083;32;20046;-68
2021/07/30 08:25:56;;;;;;;11.15;6.37;;;;;;;23.18;52.15;99273.22;4396552;32;20064;-68
2021/07/30 08:28:22;;;;;;;14.00;6.80;;;;;;;23.10;52.45;99274.50;4394987;32;20082;-69
2021/07/30 08:30:48;;;;;;;11.55;6.18;;;;;;;23.27;52.19;99275.63;4397294;32;20622;-69
2021/07/30 08:33:13;;;;;;;19.95;7.45;;;;;;;23.53;51.68;99269.69;4396747;32;20473;-69
2021/07/30 08:35:40;;;;;;;11.27;7.15;;;;;;;23.43;51.68;99265.81;4396626;32;20068;-69
2021/07/30 08:38:06;;;;;;;15.63;7.37;;;;;;;23.60;51.43;99279.72;4395959;32;20280;-69
2021/07/30 08:40:33;;;;;;;10.70;7.18;;;;;;;23.50;51.09;99270.03;4393774;32;20054;-69
2021/07/30 08:43:00;;;;;;;13.18;6.95;;;;;;;23.71;50.57;99273.62;4392557;32;20042;-69
2021/07/30 08:45:26;;;;;;;11.35;6.78;;;;;;;23.54;51.26;99264.72;4395762;32;20046;-70
2021/07/30 08:47:53;;;;;;;15.55;8.38;;;;;;;23.73;51.17;99275.94;4394605;32;20323;-69
2021/07/30 08:50:18;;;;;;;16.73;7.82;;;;;;;23.78;51.17;99275.03;4397248;32;20599;-69
2021/07/30 08:52:44;;;;;;;15.23;7.60;;;;;;;23.65;50.81;99273.03;4395506;32;20070;-69
2021/07/30 08:55:12;;;;;;;16.60;7.62;;;;;;;23.82;50.50;99264.72;4396953;32;20145;-69
2021/07/30 08:57:42;;;;;;;12.57;7.53;;;;;;;23.97;50.75;99261.19;4395891;32;20090;-69
2021/07/30 09:00:10;;;;;;;15.48;7.78;;;;;;;24.09;51.12;99251.69;4395963;32;20070;-68
2021/07/30 09:02:36;;;;;;;14.40;6.93;;;;;;;24.41;50.63;99262.72;4396085;32;20463;-69
2021/07/30 09:05:29;;;;;;;17.48;7.40;;;;;;;24.31;49.67;99258.84;4394719;32;20058;-68
2021/07/30 09:07:58;;;;;;;9.60;6.47;;;;;;;24.34;49.31;99255.63;4392661;32;20392;-68
2021/07/30 09:10:34;;;;;;;12.30;6.72;;;;;;;24.52;49.83;99253.75;4395902;32;20292;-70
2021/07/30 09:13:27;;;;;;;10.63;7.15;;;;;;;24.40;49.76;99243.94;4394860;32;20078;-68
2021/07/30 09:16:10;;;;;;;18.08;7.55;;;;;;;24.43;49.60;99240.72;4394671;32;20081;-69
2021/07/30 09:18:39;;;;;;;16.23;7.53;;;;;;;24.45;49.97;99243.00;4394514;32;20068;-68
2021/07/30 09:21:33;;;;;;;14.68;7.22;;;;;;;24.35;50.39;99250.62;4395333;32;20502;-68
2021/07/30 09:37:14;;;;;;;17.17;8.32;;;;;;;25.20;48.81;99237.41;3980899;32;15024930;-69
2021/07/30 09:39:43;;;;;;;15.25;8.00;;;;;;;25.20;48.81;99237.41;4431167;32;20064;-69
2021/07/30 09:47:25;;;;;;;12.32;7.65;;;;;;;25.61;47.20;99233.38;3982164;32;15024040;-68
2021/07/30 09:52:36;;;;;;;15.05;7.68;;;;;;;25.71;47.14;99225.66;3979197;32;15025969;-69
2021/07/30 09:57:42;;;;;;;21.77;9.10;;;;;;;25.54;47.89;99234.91;3980961;32;15025387;-70
2021/07/30 10:00:12;;;;;;;15.18;8.35;;;;;;;25.54;47.89;99234.91;4433516;32;20116;-68
2021/07/30 10:02:40;;;;;;;19.02;9.55;;;;;;;25.27;48.14;99228.75;4432070;32;20033;-69
2021/07/30 10:05:10;;;;;;;19.33;8.45;;;;;;;25.25;47.90;99231.44;4431337;32;20438;-69
2021/07/30 10:07:38;;;;;;;15.30;9.07;;;;;;;25.67;47.23;99222.41;4429920;32;20070;-68
2021/07/30 10:10:10;;;;;;;19.83;8.63;;;;;;;25.87;46.92;99221.38;4431302;32;20064;-68
2021/07/30 10:12:40;;;;;;;16.48;8.10;;;;;;;25.71;46.97;99228.53;4427710;32;20446;-68
2021/07/30 10:15:08;;;;;;;14.35;7.62;;;;;;;25.91;46.58;99221.75;4432049;32;20038;-68
2021/07/30 10:17:35;;;;;;;10.85;6.80;;;;;;;26.27;46.72;99213.56;4430849;32;20268;-68
2021/07/30 10:20:10;;;;;;;11.27;7.40;;;;;;;26.56;45.50;99211.88;4429929;32;20098;-68
2021/07/30 10:26:00;;;;;;;11.10;7.32;;;;;;;28.14;42.02;99222.09;3996977;31;15016839;-69
2021/07/30 10:28:29;;;;;;;11.95;7.37;;;;;;;28.14;42.02;99222.09;4446562;32;20096;-68
2021/07/30 10:31:11;;;;;;;12.02;7.68;;;;;;;27.68;42.45;99200.81;4445361;32;20072;-68
2021/07/30 10:36:32;;;;;;;13.00;8.18;;;;;;;27.60;43.35;99203.00;3978502;32;15024886;-70
2021/07/30 10:39:06;;;;;;;;;;;;;;;27.60;43.35;99203.00;4434455;32;20096;-70
2021/07/30 10:41:31;;;;;;;16.55;6.87;;;;;;;27.30;42.89;99206.22;4431249;32;19941;-70
2021/07/30 10:46:36;;;;;;;12.43;6.32;;;;;;;27.52;42.72;99199.44;3981982;32;15024215;-70
2021/07/30 10:49:39;;;;;;;10.45;5.85;;;;;;;27.52;42.72;99199.44;4433706;32;20088;-70
2021/07/30 10:52:26;;;;;;;9.38;6.00;;;;;;;27.83;41.80;99186.97;4434686;32;20119;-70
2021/07/30 10:54:52;;;;;;;10.63;6.05;;;;;;;27.66;42.72;99178.28;4434580;32;20512;-69
2021/07/30 10:57:57;;;;;;;11.35;6.12;;;;;;;27.60;42.34;99177.78;4434681;32;20045;-69
2021/07/30 11:00:23;;;;;;;11.73;6.60;;;;;;;28.08;41.31;99175.31;4432905;32;20041;-69
2021/07/30 11:03:05;;;;;;;14.18;6.40;;;;;;;28.20;41.43;99174.19;4434895;32;20120;-69
2021/07/30 11:05:33;;;;;;;12.10;6.30;;;;;;;28.33;40.56;99162.25;4435941;32;20037;-69
2021/07/30 11:08:01;;;;;;;10.13;6.10;;;;;;;27.97;41.22;99167.91;4431859;32;20119;-69
2021/07/30 11:10:27;;;;;;;14.95;6.25;;;;;;;28.25;41.72;99167.38;4436815;32;20164;-69
2021/07/30 11:12:54;;;;;;;12.90;6.07;;;;;;;28.44;40.92;99164.59;4436507;32;20632;-69
2021/07/30 11:15:20;;;;;;;11.43;6.20;;;;;;;28.22;41.20;99156.97;4434701;32;20041;-69
2021/07/30 11:17:48;;;;;;;13.52;5.97;;;;;;;28.22;41.03;99159.88;4434731;32;20092;-69
2021/07/30 11:20:14;;;;;;;12.65;6.10;;;;;;;27.95;41.31;99150.41;4430131;32;20112;-69
2021/07/30 11:22:40;;;;;;;14.10;7.50;;;;;;;27.71;41.61;99157.03;4435963;32;20115;-69
2021/07/30 11:25:11;;;;;;;16.37;5.87;;;;;;;27.56;42.41;99151.44;4433266;32;20435;-69
2021/07/30 11:27:37;;;;;;;16.05;6.62;;;;;;;27.85;41.71;99158.22;4434862;32;20383;-69
2021/07/30 11:30:04;;;;;;;13.23;6.72;;;;;;;27.58;41.57;99153.72;4434215;32;20429;-69
2021/07/30 11:32:32;;;;;;;12.40;6.72;;;;;;;27.14;42.75;99157.22;4433919;32;20110;-69
2021/07/30 11:35:08;;;;;;;9.13;6.60;;;;;;;26.94;42.93;99164.09;4435628;32;20532;-69
2021/07/30 11:37:34;;;;;;;13.38;7.12;;;;;;;27.23;42.62;99152.88;4434433;32;20570;-69
2021/07/30 11:40:01;;;;;;;15.90;7.53;;;;;;;25.77;45.77;99157.81;4435425;32;20065;-69
2021/07/30 11:42:30;;;;;;;13.45;7.55;;;;;;;26.91;43.67;99156.63;4431682;32;20446;-69
2021/07/30 11:45:00;;;;;;;13.05;7.03;;;;;;;27.66;42.87;99154.37;4429516;32;20038;-69
2021/07/30 11:47:28;;;;;;;8.95;6.50;;;;;;;28.38;40.43;99158.31;4432571;32;20168;-69
2021/07/30 11:52:38;;;;;;;11.02;7.05;;;;;;;28.59;40.15;99164.38;3994550;31;15019284;-70
2021/07/30 11:55:21;;;;;;;11.90;7.40;;;;;;;28.59;40.15;99164.38;4448004;32;20057;-71
2021/07/30 11:57:49;;;;;;;10.90;7.97;;;;;;;28.00;40.76;99154.37;4450214;32;20059;-70
2021/07/30 12:00:30;;;;;;;10.13;7.75;;;;;;;27.31;42.03;99149.94;4452431;32;20024;-69
2021/07/30 12:02:57;;;;;;;11.82;7.65;;;;;;;27.61;41.25;99147.50;4452742;32;20076;-70
2021/07/30 12:08:08;;;;;;;10.48;7.32;;;;;;;28.54;40.21;99145.19;3982094;32;15022497;-70
2021/07/30 12:10:36;;;;;;;11.02;7.90;;;;;;;28.54;40.21;99145.19;4441923;32;20110;-70